Time,TemperatureF,DewpointF,PressureIn,WindDirection,WindDirectionDegrees,WindSpeedMPH,WindSpeedGustMPH,Humidity,HourlyPrecipIn,Conditions,Clouds,dailyrainin,SoftwareType,DateUTC
2013-10-18 00:08:00,68.5,47.5,29.65,SW,225,4.7,-999.0,47,-99.99,,,0.00,Acu-Link.com,2013-10-18 04:08:00,
2013-10-18 00:23:00,68.9,35.3,29.66,SW,225,4.7,-999.0,29,-99.99,,,0.00,Acu-Link.com,2013-10-18 04:23:00,
2013-10-18 00:39:00,69.1,19.5,29.66,SW,225,6.8,-999.0,15,-99.99,,,0.00,Acu-Link.com,2013-10-18 04:39:00,
2013-10-18 00:54:00,69.3,-35.2,29.67,SW,225,3.7,-999.0,1,-99.99,,,0.00,Acu-Link.com,2013-10-18 04:54:00,
2013-10-18 01:09:00,69.1,-35.4,29.66,SW,225,5.8,-999.0,1,-99.99,,,0.00,Acu-Link.com,2013-10-18 05:09:00,
2013-10-18 01:24:00,69.1,-35.4,29.67,SW,225,3.2,-999.0,1,-99.99,,,0.00,Acu-Link.com,2013-10-18 05:24:00,
2013-10-18 01:40:00,69.4,-35.2,29.67,WSW,247,3.7,-999.0,1,-99.99,,,0.00,Acu-Link.com,2013-10-18 05:40:00,
2013-10-18 01:55:00,69.6,-35.1,29.67,WSW,247,8.3,-999.0,1,-99.99,,,0.00,Acu-Link.com,2013-10-18 05:55:00,
2013-10-18 02:10:00,70.0,-34.8,29.68,WSW,247,5.8,-999.0,1,-99.99,,,0.00,Acu-Link.com,2013-10-18 06:10:00,
2013-10-18 02:25:00,68.5,-35.7,29.69,West,270,8.9,-999.0,1,-99.99,,,0.00,Acu-Link.com,2013-10-18 06:25:00,
2013-10-18 02:41:00,68.0,-36.0,29.69,NW,315,9.9,-999.0,1,-99.99,,,0.00,Acu-Link.com,2013-10-18 06:41:00,
2013-10-18 02:56:00,68.0,-36.0,29.69,WNW,292,9.4,-999.0,1,-99.99,,,0.00,Acu-Link.com,2013-10-18 06:56:00,
2013-10-18 03:11:00,66.2,-37.1,29.70,WNW,292,8.9,-999.0,1,-99.99,,,0.00,Acu-Link.com,2013-10-18 07:11:00,
2013-10-18 03:26:00,65.7,-37.4,29.71,WNW,292,6.8,-999.0,1,-99.99,,,0.00,Acu-Link.com,2013-10-18 07:26:00,
2013-10-18 03:42:00,65.3,-37.6,29.70,West,270,8.9,-999.0,1,-99.99,,,0.00,Acu-Link.com,2013-10-18 07:42:00,
2013-10-18 03:57:00,64.6,-38.1,29.71,NNW,337,8.9,-999.0,1,-99.99,,,0.00,Acu-Link.com,2013-10-18 07:57:00,
2013-10-18 04:12:00,64.4,-38.2,29.71,NW,315,5.3,-999.0,1,-99.99,,,0.00,Acu-Link.com,2013-10-18 08:12:00,
2013-10-18 04:27:00,63.7,63.1,29.72,NW,315,11.4,-999.0,98,-99.99,,,0.00,Acu-Link.com,2013-10-18 08:27:00,
2013-10-18 04:42:00,63.0,-39.0,29.72,WNW,292,6.3,-999.0,1,-99.99,,,0.00,Acu-Link.com,2013-10-18 08:42:00,
2013-10-18 04:57:00,61.5,-39.9,29.74,WNW,292,7.8,-999.0,1,-99.99,,,0.00,Acu-Link.com,2013-10-18 08:57:00,
2013-10-18 05:12:00,59.5,-41.2,29.77,NW,315,8.3,-999.0,1,-99.99,,,0.00,Acu-Link.com,2013-10-18 09:12:00,
2013-10-18 05:28:00,59.0,-41.5,29.78,West,270,6.3,-999.0,1,-99.99,,,0.00,Acu-Link.com,2013-10-18 09:28:00,
2013-10-18 05:43:00,58.1,-42.0,29.79,WNW,292,6.3,-999.0,1,-99.99,,,0.00,Acu-Link.com,2013-10-18 09:43:00,
2013-10-18 05:59:00,57.6,-42.3,29.80,WNW,292,3.7,-999.0,1,-99.99,,,0.00,Acu-Link.com,2013-10-18 09:59:00,
2013-10-18 06:14:00,56.8,-42.8,29.81,WNW,292,7.8,-999.0,1,-99.99,,,0.00,Acu-Link.com,2013-10-18 10:14:00,
2013-10-18 06:30:00,56.3,-43.1,29.80,WNW,292,4.2,-999.0,1,-99.99,,,0.00,Acu-Link.com,2013-10-18 10:30:00,
2013-10-18 06:45:00,55.9,-43.3,29.80,NW,315,3.7,-999.0,1,-99.99,,,0.00,Acu-Link.com,2013-10-18 10:45:00,
2013-10-18 07:01:00,55.4,-43.7,29.81,WNW,292,2.7,-999.0,1,-99.99,,,0.00,Acu-Link.com,2013-10-18 11:01:00,
2013-10-18 07:16:00,54.9,-44.0,29.82,WNW,292,2.2,-999.0,1,-99.99,,,0.00,Acu-Link.com,2013-10-18 11:16:00,
2013-10-18 07:31:00,54.5,49.1,29.83,WNW,292,2.7,-999.0,82,-99.99,,,0.00,Acu-Link.com,2013-10-18 11:31:00,
2013-10-18 07:47:00,54.5,53.9,29.83,WNW,292,2.7,-999.0,98,-99.99,,,0.00,Acu-Link.com,2013-10-18 11:47:00,
2013-10-18 08:04:00,55.0,54.4,29.84,WNW,292,5.3,-999.0,98,-99.99,,,0.00,Acu-Link.com,2013-10-18 12:04:00,
2013-10-18 08:19:00,56.8,-42.8,29.85,WNW,292,3.7,-999.0,1,-99.99,,,0.00,Acu-Link.com,2013-10-18 12:19:00,
2013-10-18 08:34:00,58.1,-42.0,29.85,WNW,292,7.8,-999.0,1,-99.99,,,0.00,Acu-Link.com,2013-10-18 12:34:00,
2013-10-18 08:49:00,58.6,-41.7,29.86,WNW,292,8.3,-999.0,1,-99.99,,,0.00,Acu-Link.com,2013-10-18 12:49:00,
2013-10-18 09:05:00,59.4,-41.2,29.87,WNW,292,4.7,-999.0,1,-99.99,,,0.00,Acu-Link.com,2013-10-18 13:05:00,
2013-10-18 09:20:00,59.9,-40.9,29.87,West,270,8.9,-999.0,1,-99.99,,,0.00,Acu-Link.com,2013-10-18 13:20:00,
2013-10-18 09:35:00,61.0,-40.2,29.88,WNW,292,9.9,-999.0,1,-99.99,,,0.00,Acu-Link.com,2013-10-18 13:35:00,
2013-10-18 09:50:00,62.2,-39.5,29.88,West,270,5.3,-999.0,1,-99.99,,,0.00,Acu-Link.com,2013-10-18 13:50:00,
2013-10-18 10:06:00,63.5,-38.7,29.88,West,270,6.3,-999.0,1,-99.99,,,0.00,Acu-Link.com,2013-10-18 14:06:00,
2013-10-18 10:21:00,63.9,-38.5,29.88,WSW,247,4.7,-999.0,1,-99.99,,,0.00,Acu-Link.com,2013-10-18 14:21:00,
2013-10-18 10:36:00,63.9,-38.5,29.89,NW,315,9.4,-999.0,1,-99.99,,,0.00,Acu-Link.com,2013-10-18 14:36:00,
2013-10-18 10:51:00,64.8,-37.9,29.88,WNW,292,7.8,-999.0,1,-99.99,,,0.00,Acu-Link.com,2013-10-18 14:51:00,
2013-10-18 11:06:00,64.9,-37.9,29.89,WSW,247,7.3,-999.0,1,-99.99,,,0.00,Acu-Link.com,2013-10-18 15:06:00,
2013-10-18 11:21:00,65.7,-37.4,29.88,SW,225,8.9,-999.0,1,-99.99,,,0.00,Acu-Link.com,2013-10-18 15:21:00,
2013-10-18 11:36:00,65.5,-37.5,29.88,West,270,5.8,-999.0,1,-99.99,,,0.00,Acu-Link.com,2013-10-18 15:36:00,
2013-10-18 11:52:00,66.2,-37.1,29.88,WNW,292,6.3,-999.0,1,-99.99,,,0.00,Acu-Link.com,2013-10-18 15:52:00,
2013-10-18 12:07:00,66.6,-36.9,29.88,WNW,292,6.8,-999.0,1,-99.99,,,0.00,Acu-Link.com,2013-10-18 16:07:00,
2013-10-18 12:23:00,67.1,-36.6,29.88,West,270,6.8,-999.0,1,-99.99,,,0.00,Acu-Link.com,2013-10-18 16:23:00,
2013-10-18 12:38:00,67.8,-36.1,29.87,SW,225,7.3,-999.0,1,-99.99,,,0.00,Acu-Link.com,2013-10-18 16:38:00,
2013-10-18 12:53:00,66.9,-36.7,29.87,SW,225,6.8,-999.0,1,-99.99,,,0.00,Acu-Link.com,2013-10-18 16:53:00,
2013-10-18 13:09:00,67.8,-36.1,29.86,WNW,292,5.8,-999.0,1,-99.99,,,0.00,Acu-Link.com,2013-10-18 17:09:00,
2013-10-18 13:30:00,67.6,-36.3,29.86,SSW,202,4.7,-999.0,1,-99.99,,,0.00,Acu-Link.com,2013-10-18 17:30:00,
2013-10-18 13:45:00,68.0,-36.0,29.86,NNE,22,5.8,-999.0,1,-99.99,,,0.00,Acu-Link.com,2013-10-18 17:45:00,
2013-10-18 14:00:00,68.4,-35.8,29.85,North,0,4.7,-999.0,1,-99.99,,,0.00,Acu-Link.com,2013-10-18 18:00:00,
2013-10-18 14:16:00,68.7,-35.6,29.85,East,90,2.7,-999.0,1,-99.99,,,0.00,Acu-Link.com,2013-10-18 18:16:00,
2013-10-18 14:31:00,69.3,-35.2,29.85,WNW,292,7.3,-999.0,1,-99.99,,,0.00,Acu-Link.com,2013-10-18 18:31:00,
2013-10-18 14:46:00,69.1,-35.4,29.85,West,270,3.2,-999.0,1,-99.99,,,0.00,Acu-Link.com,2013-10-18 18:46:00,
2013-10-18 15:01:00,68.9,-35.5,29.85,West,270,4.7,-999.0,1,-99.99,,,0.00,Acu-Link.com,2013-10-18 19:01:00,
2013-10-18 15:18:00,68.9,-35.5,29.85,NW,315,4.7,-999.0,1,-99.99,,,0.00,Acu-Link.com,2013-10-18 19:18:00,
2013-10-18 15:33:00,68.2,-35.9,29.85,NW,315,5.3,-999.0,1,-99.99,,,0.00,Acu-Link.com,2013-10-18 19:33:00,
2013-10-18 15:49:00,68.4,-35.8,29.85,West,270,4.2,-999.0,1,-99.99,,,0.00,Acu-Link.com,2013-10-18 19:49:00,
2013-10-18 16:04:00,67.8,-36.1,29.85,West,270,3.7,-999.0,1,-99.99,,,0.00,Acu-Link.com,2013-10-18 20:04:00,
2013-10-18 16:19:00,68.0,-36.0,29.85,West,270,5.3,-999.0,1,-99.99,,,0.00,Acu-Link.com,2013-10-18 20:19:00,
2013-10-18 16:34:00,68.0,-36.0,29.85,West,270,5.8,-999.0,1,-99.99,,,0.00,Acu-Link.com,2013-10-18 20:34:00,
2013-10-18 16:51:00,67.8,-36.1,29.85,West,270,2.7,-999.0,1,-99.99,,,0.00,Acu-Link.com,2013-10-18 20:51:00,
2013-10-18 17:06:00,67.3,-36.4,29.85,West,270,5.3,-999.0,1,-99.99,,,0.00,Acu-Link.com,2013-10-18 21:06:00,
2013-10-18 17:21:00,68.0,-36.0,29.85,West,270,5.8,-999.0,1,-99.99,,,0.00,Acu-Link.com,2013-10-18 21:21:00,
2013-10-18 17:36:00,67.8,-36.1,29.86,West,270,5.3,-999.0,1,-99.99,,,0.00,Acu-Link.com,2013-10-18 21:36:00,
2013-10-18 17:51:00,67.1,-36.6,29.86,West,270,1.7,-999.0,1,-99.99,,,0.00,Acu-Link.com,2013-10-18 21:51:00,
2013-10-18 18:07:00,64.8,-37.9,29.88,West,270,3.2,-999.0,1,-99.99,,,0.00,Acu-Link.com,2013-10-18 22:07:00,
2013-10-18 18:22:00,63.1,-39.0,29.88,West,270,0.0,-999.0,1,-99.99,,,0.00,Acu-Link.com,2013-10-18 22:22:00,
2013-10-18 18:38:00,61.5,-39.9,29.88,West,270,0.0,-999.0,1,-99.99,,,0.00,Acu-Link.com,2013-10-18 22:38:00,
2013-10-18 18:53:00,60.4,-40.6,29.88,West,270,0.0,-999.0,1,-99.99,,,0.00,Acu-Link.com,2013-10-18 22:53:00,
2013-10-18 19:09:00,59.9,-40.9,29.89,West,270,0.0,-999.0,1,-99.99,,,0.00,Acu-Link.com,2013-10-18 23:09:00,
2013-10-18 19:26:00,58.1,-42.0,29.89,West,270,0.0,-999.0,1,-99.99,,,0.00,Acu-Link.com,2013-10-18 23:26:00,
2013-10-18 19:42:00,57.2,-42.6,29.90,West,270,0.0,-999.0,1,-99.99,,,0.00,Acu-Link.com,2013-10-18 23:42:00,
2013-10-18 19:58:00,56.5,-43.0,29.89,West,270,0.0,-999.0,1,-99.99,,,0.00,Acu-Link.com,2013-10-18 23:58:00,
2013-10-18 20:13:00,55.9,-43.3,29.89,West,270,0.0,-999.0,1,-99.99,,,0.00,Acu-Link.com,2013-10-19 00:13:00,
2013-10-18 20:29:00,54.9,54.3,29.90,West,270,0.0,-999.0,98,-99.99,,,0.00,Acu-Link.com,2013-10-19 00:29:00,
2013-10-18 20:44:00,55.0,54.4,29.90,West,270,0.0,-999.0,98,-99.99,,,0.00,Acu-Link.com,2013-10-19 00:44:00,
2013-10-18 20:59:00,54.3,-44.3,29.91,West,270,0.0,-999.0,1,-99.99,,,0.00,Acu-Link.com,2013-10-19 00:59:00,
2013-10-18 21:14:00,54.0,-44.5,29.91,West,270,0.0,-999.0,1,-99.99,,,0.00,Acu-Link.com,2013-10-19 01:14:00,
2013-10-18 21:30:00,54.0,-44.5,29.92,West,270,0.0,-999.0,1,-99.99,,,0.00,Acu-Link.com,2013-10-19 01:30:00,
2013-10-18 21:45:00,54.1,-44.4,29.93,West,270,0.0,-999.0,1,-99.99,,,0.00,Acu-Link.com,2013-10-19 01:45:00,
2013-10-18 22:00:00,54.1,-44.4,29.93,West,270,0.0,-999.0,1,-99.99,,,0.00,Acu-Link.com,2013-10-19 02:00:00,
2013-10-18 22:15:00,54.1,-44.4,29.93,West,270,0.0,-999.0,1,-99.99,,,0.00,Acu-Link.com,2013-10-19 02:15:00,
2013-10-18 22:31:00,54.3,-44.3,29.92,West,270,0.0,-999.0,1,-99.99,,,0.00,Acu-Link.com,2013-10-19 02:31:00,
2013-10-18 22:47:00,54.1,-44.4,29.93,West,270,0.0,-999.0,1,-99.99,,,0.00,Acu-Link.com,2013-10-19 02:47:00,
2013-10-18 23:02:00,54.0,-44.5,29.92,West,270,0.0,-999.0,1,-99.99,,,0.00,Acu-Link.com,2013-10-19 03:02:00,
2013-10-18 23:17:00,53.8,-44.6,29.92,West,270,0.0,-999.0,1,-99.99,,,0.00,Acu-Link.com,2013-10-19 03:17:00,
2013-10-18 23:32:00,53.1,-45.1,29.92,West,270,0.0,-999.0,1,-99.99,,,0.00,Acu-Link.com,2013-10-19 03:32:00,
2013-10-18 23:48:00,53.1,-45.1,29.91,West,270,0.0,-999.0,1,-99.99,,,0.00,Acu-Link.com,2013-10-19 03:48:00,